createdAt,value
2022-10-16T00:00:14.392Z,100292.78
2022-10-16T00:04:15.915Z,100295.41
2022-10-16T00:08:17.439Z,100296.28
2022-10-16T00:12:19.049Z,100291.97
2022-10-16T00:16:21.202Z,100300.56
2022-10-16T00:20:22.777Z,100282.41
2022-10-16T00:24:24.286Z,100280.69
2022-10-16T00:28:26.806Z,100279.81
2022-10-16T00:32:28.657Z,100294.47
2022-10-16T00:36:31.559Z,100302.22
2022-10-16T00:40:33.121Z,100309.13
2022-10-16T00:45:01.094Z,100326.44
2022-10-16T00:49:06.750Z,100321.28
2022-10-16T00:53:08.235Z,100311.81
2022-10-16T00:57:10.058Z,100313.50
2022-10-16T01:01:11.690Z,100312.63
2022-10-16T01:05:13.336Z,100323.81
2022-10-16T01:09:38.373Z,100313.44
2022-10-16T01:13:46.799Z,100309.94
2022-10-16T01:17:54.635Z,100329.84
2022-10-16T01:21:58.448Z,100322.13
2022-10-16T01:26:45.533Z,100324.75
2022-10-16T01:30:48.400Z,100319.53
2022-10-16T01:34:59.987Z,100323.84
2022-10-16T01:39:03.463Z,100317.78
2022-10-16T01:43:13.725Z,100332.41
2022-10-16T01:47:16.585Z,100347.94
2022-10-16T01:51:20.504Z,100348.84
2022-10-16T01:55:30.727Z,100337.69
2022-10-16T01:59:36.860Z,100333.41
2022-10-16T02:03:40.943Z,100335.13
2022-10-16T02:07:43.173Z,100339.38
2022-10-16T02:11:45.785Z,100337.66
2022-10-16T02:15:47.355Z,100351.50
2022-10-16T02:19:51.207Z,100349.75
2022-10-16T02:24:12.292Z,100345.41
2022-10-16T02:28:19.478Z,100341.91
2022-10-16T02:32:25.573Z,100334.13
2022-10-16T02:36:28.322Z,100342.69
2022-10-16T02:40:30.058Z,100341.72
2022-10-16T02:44:31.632Z,100341.78
2022-10-16T02:48:33.272Z,100339.94
2022-10-16T02:52:35.208Z,100345.09
2022-10-16T02:56:36.779Z,100349.41
2022-10-16T03:00:38.373Z,100354.59
2022-10-16T03:04:39.956Z,100364.13
2022-10-16T03:08:41.463Z,100357.22
2022-10-16T03:12:42.958Z,100359.75
2022-10-16T03:16:44.563Z,100369.16
2022-10-16T03:20:46.185Z,100350.19
2022-10-16T03:24:47.755Z,100348.44
2022-10-16T03:28:49.378Z,100349.22
2022-10-16T03:32:54.914Z,100338.03
2022-10-16T03:36:56.638Z,100341.50
2022-10-16T03:40:58.136Z,100336.34
2022-10-16T03:44:59.661Z,100345.88
2022-10-16T03:49:03.003Z,100350.22
2022-10-16T03:53:06.432Z,100355.41
2022-10-16T03:57:08.263Z,100363.09
2022-10-16T04:01:09.907Z,100357.03
2022-10-16T04:05:11.511Z,100368.31
2022-10-16T04:09:13.161Z,100370.09
2022-10-16T04:13:14.737Z,100371.84
2022-10-16T04:17:16.433Z,100370.13
2022-10-16T04:21:17.973Z,100381.28
2022-10-16T04:25:19.486Z,100390.81
2022-10-16T04:29:20.979Z,100397.72
2022-10-16T04:33:22.527Z,100408.94
2022-10-16T04:37:26.466Z,100398.59
2022-10-16T04:41:28.231Z,100383.03
2022-10-16T04:45:30.098Z,100382.97
2022-10-16T04:49:31.615Z,100391.53
2022-10-16T04:53:34.218Z,100394.88
2022-10-16T04:57:35.842Z,100395.66
2022-10-16T05:01:37.505Z,100381.81
2022-10-16T05:05:44.055Z,100391.31
2022-10-16T05:09:45.548Z,100400.88
2022-10-16T05:13:48.956Z,100387.13
2022-10-16T05:17:56.799Z,100385.28
2022-10-16T05:21:58.382Z,100381.81
2022-10-16T05:26:00.526Z,100370.53
2022-10-16T05:30:02.029Z,100384.31
2022-10-16T05:34:03.701Z,100382.63
2022-10-16T05:38:05.187Z,100382.66
2022-10-16T05:42:07.146Z,100393.91
2022-10-16T05:46:08.838Z,100399.88
2022-10-16T05:50:10.392Z,100418.91
2022-10-16T05:54:11.923Z,100412.09
2022-10-16T05:58:13.435Z,100407.78
2022-10-16T06:02:15.434Z,100404.31
2022-10-16T06:06:22.807Z,100404.25
2022-10-16T06:10:24.340Z,100401.63
2022-10-16T06:14:25.893Z,100399.03
2022-10-16T06:18:29.008Z,100415.44
2022-10-16T06:22:30.599Z,100406.06
2022-10-16T06:26:32.791Z,100413.06
2022-10-16T06:30:34.329Z,100413.16
2022-10-16T06:34:36.302Z,100429.56
2022-10-16T06:38:39.440Z,100443.41
2022-10-16T06:42:41.676Z,100455.50
2022-10-16T06:46:43.255Z,100456.44
2022-10-16T06:50:44.801Z,100445.19
2022-10-16T06:54:46.353Z,100462.56
2022-10-16T06:58:48.592Z,100472.09
2022-10-16T07:02:50.751Z,100482.50
2022-10-16T07:06:52.704Z,100487.75
2022-10-16T07:11:09.743Z,100501.59
2022-10-16T07:15:11.395Z,100504.28
2022-10-16T07:19:15.366Z,100508.69
2022-10-16T07:23:16.970Z,100508.00
2022-10-16T07:27:18.506Z,100508.09
2022-10-16T07:31:21.413Z,100522.88
2022-10-16T07:35:23.016Z,100523.78
2022-10-16T07:39:24.527Z,100521.16
2022-10-16T07:43:27.266Z,100535.88
2022-10-16T07:47:29.313Z,100540.28
2022-10-16T07:51:31.993Z,100542.94
2022-10-16T07:55:33.574Z,100548.16
2022-10-16T07:59:35.133Z,100537.84
2022-10-16T08:03:37.300Z,100542.16
2022-10-16T08:07:39.137Z,100544.69
2022-10-16T08:11:40.653Z,100548.94
2022-10-16T08:15:46.013Z,100554.97
2022-10-16T08:19:48.483Z,100563.63
2022-10-16T08:23:54.883Z,100551.50
2022-10-16T08:27:58.719Z,100557.56
2022-10-16T08:32:00.308Z,100576.78
2022-10-16T08:36:02.468Z,100574.34
2022-10-16T08:40:06.421Z,100565.84
2022-10-16T08:44:40.075Z,100575.41
2022-10-16T08:48:48.278Z,100584.88
2022-10-16T08:52:49.913Z,100597.94
2022-10-16T08:56:51.465Z,100623.06
2022-10-16T09:00:59.244Z,100658.69
2022-10-16T09:05:10.115Z,100659.47
2022-10-16T09:09:30.404Z,100633.59
2022-10-16T09:13:47.259Z,100633.72
2022-10-16T09:17:51.765Z,100632.97
2022-10-16T09:21:54.164Z,100642.59
2022-10-16T09:25:58.098Z,100648.66
2022-10-16T09:30:00.271Z,100653.00
2022-10-16T09:34:07.535Z,100654.72
2022-10-16T09:38:09.704Z,100656.47
2022-10-16T09:42:15.960Z,100636.56
2022-10-16T09:46:27.349Z,100636.53
2022-10-16T09:50:29.963Z,100639.13
2022-10-16T09:58:34.318Z,100657.31
2022-10-16T10:02:39.004Z,100656.44
2022-10-16T10:06:51.363Z,100662.47
2022-10-16T10:10:53.857Z,100660.72
2022-10-16T10:14:59.679Z,100666.69
2022-10-16T10:19:01.919Z,100662.25
2022-10-16T10:23:22.883Z,100650.97
2022-10-16T10:27:45.597Z,100652.78
2022-10-16T10:31:50.573Z,100656.31
2022-10-16T10:36:17.759Z,100653.81
2022-10-16T10:40:46.183Z,100646.97
2022-10-16T10:45:12.492Z,100645.25
2022-10-16T10:49:56.575Z,100648.72
2022-10-16T10:54:16.788Z,100653.88
2022-10-16T10:58:40.094Z,100640.00
2022-10-16T11:03:00.049Z,100630.44
2022-10-16T11:07:18.210Z,100646.94
2022-10-16T11:11:52.794Z,100651.25
2022-10-16T11:16:04.263Z,100656.47
2022-10-16T11:24:39.765Z,100651.25
2022-10-16T11:28:47.791Z,100640.00
2022-10-16T11:33:05.604Z,100644.34
2022-10-16T11:37:15.571Z,100635.69
2022-10-16T11:41:36.352Z,100625.31
2022-10-16T11:45:41.943Z,100637.44
2022-10-16T11:49:46.775Z,100629.59
2022-10-16T11:54:29.270Z,100631.31
2022-10-16T11:58:36.481Z,100634.66
2022-10-16T12:02:50.102Z,100632.03
2022-10-16T12:07:08.144Z,100628.53
2022-10-16T12:11:24.713Z,100622.44
2022-10-16T12:15:54.597Z,100625.88
2022-10-16T12:20:31.743Z,100616.25
2022-10-16T12:24:39.126Z,100620.56
2022-10-16T12:28:41.680Z,100610.94
2022-10-16T12:32:47.717Z,100610.13
2022-10-16T12:36:50.828Z,100609.28
2022-10-16T12:41:00.030Z,100611.91
2022-10-16T12:45:02.220Z,100610.16
2022-10-16T12:49:13.037Z,100604.91
2022-10-16T12:53:27.110Z,100603.97
2022-10-16T12:57:44.041Z,100609.94
2022-10-16T13:01:57.901Z,100610.84
2022-10-16T13:06:18.205Z,100618.66
2022-10-16T13:10:31.796Z,100620.56
2022-10-16T13:14:45.493Z,100626.78
2022-10-16T13:19:10.133Z,100643.31
2022-10-16T13:23:23.227Z,100627.78
2022-10-16T13:27:51.150Z,100641.69
2022-10-16T13:31:52.804Z,100628.66
2022-10-16T13:35:58.270Z,100635.63
2022-10-16T13:40:20.851Z,100632.19
2022-10-16T13:44:22.393Z,100611.38
2022-10-16T13:48:24.194Z,100628.72
2022-10-16T13:52:26.084Z,100634.78
2022-10-16T13:56:33.671Z,100626.94
2022-10-16T14:00:36.356Z,100634.78
2022-10-16T14:04:39.800Z,100621.78
2022-10-16T14:08:44.737Z,100642.63
2022-10-16T14:12:46.674Z,100639.13
2022-10-16T14:16:48.877Z,100646.97
2022-10-16T14:20:51.123Z,100641.78
2022-10-16T14:24:52.677Z,100645.25
2022-10-16T14:29:16.320Z,100641.78
2022-10-16T14:33:30.537Z,100635.72
2022-10-16T14:37:32.425Z,100647.84
2022-10-16T14:41:44.580Z,100656.53
2022-10-16T14:45:52.918Z,100652.19
2022-10-16T14:49:59.930Z,100643.50
2022-10-16T14:54:02.751Z,100646.13
2022-10-16T14:58:04.356Z,100639.16
2022-10-16T15:02:29.317Z,100639.16
2022-10-16T15:06:30.923Z,100643.47
2022-10-16T15:10:39.096Z,100643.44
2022-10-16T15:14:40.748Z,100650.41
2022-10-16T15:18:42.731Z,100653.91
2022-10-16T15:22:44.274Z,100665.19
2022-10-16T15:26:47.001Z,100666.94
2022-10-16T15:30:51.645Z,100661.72
2022-10-16T15:34:53.175Z,100662.56
2022-10-16T15:38:54.810Z,100660.88
2022-10-16T15:42:56.430Z,100651.34
2022-10-16T15:46:57.960Z,100648.72
2022-10-16T15:51:00.399Z,100654.78
2022-10-16T15:55:01.985Z,100652.19
2022-10-16T15:59:04.181Z,100663.47
2022-10-16T16:03:06.702Z,100671.28
2022-10-16T16:07:08.484Z,100673.78
2022-10-16T16:11:12.671Z,100678.09
2022-10-16T16:15:14.181Z,100679.84
2022-10-16T16:19:17.100Z,100680.66
2022-10-16T16:23:20.035Z,100679.75
2022-10-16T16:27:21.895Z,100683.13
2022-10-16T16:31:28.925Z,100689.19
2022-10-16T16:35:30.474Z,100683.06
2022-10-16T16:39:31.980Z,100674.38
2022-10-16T16:43:33.571Z,100674.34
2022-10-16T16:47:35.579Z,100676.91
2022-10-16T16:51:39.939Z,100688.97
2022-10-16T16:55:42.250Z,100692.34
2022-10-16T16:59:43.775Z,100702.66
2022-10-16T17:03:45.974Z,100709.50
2022-10-16T17:07:47.479Z,100704.25
2022-10-16T17:11:49.200Z,100704.19
2022-10-16T17:15:52.490Z,100715.44
2022-10-16T17:19:54.022Z,100711.94
2022-10-16T17:23:55.531Z,100715.38
2022-10-16T17:27:57.116Z,100719.66
2022-10-16T17:31:59.521Z,100721.34
2022-10-16T17:36:01.088Z,100723.91
2022-10-16T17:40:02.722Z,100734.22
2022-10-16T17:44:06.748Z,100734.16
2022-10-16T17:48:08.375Z,100739.28
2022-10-16T17:52:10.336Z,100734.94
2022-10-16T17:56:14.050Z,100735.72
2022-10-16T18:00:15.675Z,100745.22
2022-10-16T18:04:18.163Z,100745.16
2022-10-16T18:08:21.757Z,100745.13
2022-10-16T18:12:25.829Z,100748.56
2022-10-16T18:16:29.795Z,100745.94
2022-10-16T18:20:31.423Z,100753.66
2022-10-16T18:24:32.980Z,100758.78
2022-10-16T18:28:34.874Z,100755.31
2022-10-16T18:32:36.528Z,100765.59
2022-10-16T18:36:39.575Z,100761.22
2022-10-16T18:40:41.181Z,100760.38
2022-10-16T18:44:42.770Z,100762.03
2022-10-16T18:48:44.853Z,100762.00
2022-10-16T18:52:49.813Z,100763.69
2022-10-16T18:56:53.053Z,100761.91
2022-10-16T19:00:54.807Z,100763.56
2022-10-16T19:04:56.377Z,100764.38
2022-10-16T19:08:57.963Z,100772.09
2022-10-16T19:12:59.544Z,100773.78
2022-10-16T19:17:01.273Z,100768.56
2022-10-16T19:21:04.208Z,100777.13
2022-10-16T19:25:06.598Z,100780.59
2022-10-16T19:29:09.207Z,100788.31
2022-10-16T19:33:10.732Z,100786.50
2022-10-16T19:37:12.358Z,100790.81
2022-10-16T19:41:16.227Z,100791.59
2022-10-16T19:45:17.861Z,100804.44
2022-10-16T19:49:21.656Z,100803.47
2022-10-16T19:53:23.638Z,100812.91
2022-10-16T19:57:26.186Z,100826.69
2022-10-16T20:01:30.606Z,100827.53
2022-10-16T20:05:32.299Z,100830.09
2022-10-16T20:09:35.193Z,100833.50
2022-10-16T20:13:39.884Z,100839.50
2022-10-16T20:17:43.909Z,100842.03
2022-10-16T20:21:45.464Z,100841.13
2022-10-16T20:25:47.604Z,100842.81
2022-10-16T20:29:49.119Z,100844.47
2022-10-16T20:33:52.997Z,100854.81
2022-10-16T20:37:54.570Z,100861.53
2022-10-16T20:41:56.094Z,100869.25
2022-10-16T20:46:02.473Z,100872.72
2022-10-16T20:50:04.408Z,100877.00
2022-10-16T20:54:06.733Z,100878.72
2022-10-16T20:58:08.271Z,100884.75
2022-10-16T21:02:13.500Z,100874.34
2022-10-16T21:06:15.963Z,100882.94
2022-10-16T21:10:19.015Z,100880.28
2022-10-16T21:14:21.982Z,100878.56
2022-10-16T21:18:23.598Z,100894.91
2022-10-16T21:22:29.567Z,100896.56
2022-10-16T21:26:32.087Z,100893.88
2022-10-16T21:30:33.577Z,100899.88
2022-10-16T21:34:35.127Z,100893.78
2022-10-16T21:38:36.718Z,100913.59
2022-10-16T21:42:38.323Z,100900.53
2022-10-16T21:46:41.833Z,100897.81
2022-10-16T21:50:48.329Z,100902.03
2022-10-16T21:54:49.997Z,100909.78
2022-10-16T21:58:51.985Z,100909.72
2022-10-16T22:02:53.571Z,100918.22
2022-10-16T22:06:55.059Z,100912.97
2022-10-16T22:11:03.845Z,100916.34
2022-10-16T22:15:06.053Z,100917.09
2022-10-16T22:19:08.123Z,100920.53
2022-10-16T22:23:09.609Z,100918.75
2022-10-16T22:27:11.120Z,100917.00
2022-10-16T22:31:14.161Z,100923.00
2022-10-16T22:35:15.729Z,100931.56
2022-10-16T22:39:17.909Z,100930.59
2022-10-16T22:43:19.408Z,100931.41
2022-10-16T22:47:20.938Z,100935.69
2022-10-16T22:51:23.071Z,100933.09
2022-10-16T22:55:24.747Z,100930.53
2022-10-16T22:59:26.422Z,100932.25
2022-10-16T23:03:28.033Z,100940.88
2022-10-16T23:07:29.569Z,100942.53
2022-10-16T23:11:31.218Z,100939.94
2022-10-16T23:15:32.853Z,100951.16
2022-10-16T23:19:34.347Z,100951.94
2022-10-16T23:23:36.886Z,100952.81
2022-10-16T23:27:38.390Z,100945.91
2022-10-16T23:31:39.889Z,100956.25
2022-10-16T23:35:41.704Z,100958.72
2022-10-16T23:39:43.301Z,100967.38
2022-10-16T23:43:44.897Z,100977.78
2022-10-16T23:47:46.402Z,100974.38
2022-10-16T23:51:47.939Z,100983.88
2022-10-16T23:55:49.737Z,100988.16
2022-10-16T23:59:51.259Z,100979.50
